Time;durP1;ratioP1;P1;durP2;ratioP2;P2;SDS_P1;SDS_P2;PMS_P1;PMS_P2;Temp;Humidity;BMP_temperature;BMP_pressure;BME280_temperature;BME280_humidity;BME280_pressure;Samples;Min_cycle;Max_cycle;Signal;HPM_P1;HPM_P2
2022/09/01 00:03:51;;;;;;;4.80;4.40;;;17.10;18.60;;;;;;2617406;54;20458;-75
2022/09/01 00:09:39;;;;;;;4.40;4.20;;;17.10;19.40;;;;;;2617153;54;20430;-75
2022/09/01 00:15:27;;;;;;;5.27;4.77;;;16.90;20.80;;;;;;2617144;54;20397;-76
2022/09/01 00:21:21;;;;;;;6.67;5.40;;;16.80;20.80;;;;;;2615667;54;20426;-77
2022/09/01 00:27:09;;;;;;;8.10;4.87;;;16.90;21.00;;;;;;2616433;54;20389;-77
2022/09/01 00:32:58;;;;;;;5.50;5.17;;;16.90;21.20;;;;;;2616476;39;20561;-77
2022/09/01 00:35:50;;;;;;;5.77;4.83;;;17.00;20.70;;;;;;2615962;46;20927;-77
2022/09/01 00:38:16;;;;;;;5.50;4.97;;;17.00;20.70;;;;;;2615768;47;20429;-77
2022/09/01 00:44:07;;;;;;;4.77;4.43;;;17.00;20.50;;;;;;2616701;54;20915;-76
2022/09/01 00:49:55;;;;;;;4.97;4.50;;;17.00;20.90;;;;;;2617460;54;20377;-77
2022/09/01 00:55:43;;;;;;;4.60;4.30;;;17.00;20.90;;;;;;2616783;54;20184;-77
2022/09/01 01:01:33;;;;;;;8.90;4.97;;;16.90;21.40;;;;;;2616435;54;20448;-77
2022/09/01 01:07:22;;;;;;;4.60;4.30;;;16.80;22.20;;;;;;2616009;39;20767;-77
2022/09/01 01:13:14;;;;;;;5.33;4.93;;;16.70;23.00;;;;;;2616351;54;20433;-79
2022/09/01 01:19:03;;;;;;;5.17;4.77;;;16.60;23.80;;;;;;2615933;54;20401;-77
2022/09/01 01:24:51;;;;;;;4.70;4.40;;;16.50;24.60;;;;;;2617546;39;20775;-78
2022/09/01 01:30:43;;;;;;;5.07;4.57;;;16.40;26.40;;;;;;2616738;54;20479;-76
2022/09/01 01:40:24;;;;;;;5.40;4.90;;;16.10;29.50;;;;;;2616202;54;20400;-77
2022/09/01 01:46:13;;;;;;;5.10;4.60;;;15.80;36.00;;;;;;2616115;54;20416;-78
2022/09/01 01:52:03;;;;;;;5.07;4.70;;;15.60;38.70;;;;;;2615992;54;20399;-77
2022/09/01 01:57:51;;;;;;;5.23;4.83;;;15.50;41.80;;;;;;2615621;54;20518;-77
2022/09/01 02:03:39;;;;;;;5.80;5.30;;;15.40;42.80;;;;;;2616515;54;20127;-77
2022/09/01 02:09:26;;;;;;;4.97;4.67;;;15.40;44.20;;;;;;2616867;54;20396;-77
2022/09/01 02:15:14;;;;;;;5.00;4.60;;;15.30;46.80;;;;;;2617399;54;20133;-76
2022/09/01 02:21:09;;;;;;;4.63;4.33;;;15.20;48.50;;;;;;2616659;54;20201;-77
2022/09/01 02:26:59;;;;;;;5.50;5.10;;;15.20;50.00;;;;;;2616097;54;21039;-77
2022/09/01 02:32:47;;;;;;;5.40;5.00;;;15.20;50.80;;;;;;2616623;54;20398;-78
2022/09/01 02:35:53;;;;;;;5.33;4.70;;;15.20;50.20;;;;;;2616893;31;20850;-78
2022/09/01 02:38:25;;;;;;;5.43;4.63;;;15.20;50.90;;;;;;2616641;54;20185;-78
2022/09/01 02:44:13;;;;;;;5.60;5.03;;;15.20;51.30;;;;;;2616482;39;20750;-80
2022/09/01 02:50:02;;;;;;;6.00;5.17;;;15.20;52.20;;;;;;2616394;54;20371;-78
2022/09/01 02:55:50;;;;;;;7.00;4.20;;;15.10;53.60;;;;;;2617570;54;20422;-78
2022/09/01 03:01:46;;;;;;;5.40;4.47;;;15.00;56.20;;;;;;2618527;39;20798;-78
2022/09/01 03:07:35;;;;;;;4.80;4.10;;;14.90;59.90;;;;;;2616339;54;20431;-77
2022/09/01 03:13:24;;;;;;;5.20;4.80;;;14.80;62.70;;;;;;2616541;54;20408;-77
2022/09/01 03:19:13;;;;;;;4.63;4.33;;;14.80;65.10;;;;;;2616377;54;20429;-77
2022/09/01 03:25:00;;;;;;;5.40;5.00;;;14.80;65.80;;;;;;2616493;54;20965;-77
2022/09/01 03:30:51;;;;;;;5.30;4.80;;;14.70;68.20;;;;;;2617013;54;20244;-76
2022/09/01 03:40:31;;;;;;;6.23;4.43;;;14.50;74.00;;;;;;2617082;54;20525;-77
2022/09/01 03:46:21;;;;;;;5.97;5.37;;;14.40;79.50;;;;;;2615464;54;20400;-75
2022/09/01 03:52:10;;;;;;;5.70;5.30;;;14.30;82.20;;;;;;2615367;54;20386;-74
2022/09/01 04:01:21;;;;;;;6.63;5.23;;;14.20;87.30;;;;;;2615339;54;20443;-75
2022/09/01 04:07:08;;;;;;;8.33;5.40;;;14.20;90.10;;;;;;2615462;54;20419;-77
2022/09/01 04:12:58;;;;;;;6.30;5.17;;;14.00;91.70;;;;;;2615814;54;20200;-77
2022/09/01 04:18:47;;;;;;;6.13;5.60;;;13.90;94.50;;;;;;2616347;54;20417;-77
2022/09/01 04:24:35;;;;;;;6.03;5.10;;;13.80;95.20;;;;;;2617145;54;20347;-78
2022/09/01 04:30:25;;;;;;;9.03;4.70;;;13.80;96.30;;;;;;2616623;54;20131;-77
2022/09/01 04:40:26;;;;;;;5.90;5.50;;;13.60;98.80;;;;;;2617285;39;20772;-76
2022/09/01 04:46:15;;;;;;;8.07;5.90;;;13.60;99.90;;;;;;2616989;54;20387;-77
2022/09/01 04:52:03;;;;;;;6.10;5.70;;;13.60;99.90;;;;;;2616224;54;20447;-77
2022/09/01 04:57:51;;;;;;;6.13;5.63;;;13.50;99.90;;;;;;2616369;54;20380;-77
2022/09/01 05:03:38;;;;;;;8.70;5.13;;;13.60;99.90;;;;;;2616263;46;20141;-77
2022/09/01 05:09:35;;;;;;;6.50;5.97;;;13.70;99.90;;;;;;2617120;39;20557;-78
2022/09/01 05:15:23;;;;;;;9.97;6.10;;;13.90;99.90;;;;;;2618850;54;20412;-77
2022/09/01 05:21:14;;;;;;;6.00;5.50;;;13.80;99.90;;;;;;2618836;54;20132;-79
2022/09/01 05:27:07;;;;;;;8.67;6.20;;;13.90;99.90;;;;;;2618296;54;20417;-76
2022/09/01 05:32:54;;;;;;;10.23;6.40;;;14.10;98.70;;;;;;2618561;39;20752;-79
2022/09/01 05:35:58;;;;;;;8.70;5.97;;;14.10;98.50;;;;;;2617594;47;20519;-77
2022/09/01 05:42:17;;;;;;;6.63;5.50;;;15.70;72.70;;;;;;2618553;54;20428;-77
2022/09/01 05:48:05;;;;;;;6.33;5.73;;;17.00;49.90;;;;;;2618420;39;20799;-77
2022/09/01 06:00:33;;;;;;;11.00;6.17;;;17.60;38.30;;;;;;2618218;54;20370;-78
2022/09/01 06:06:24;;;;;;;7.20;6.60;;;18.20;33.50;;;;;;2614825;54;20519;-77
2022/09/01 06:12:19;;;;;;;5.97;5.37;;;18.30;29.10;;;;;;2617027;54;20386;-78
2022/09/01 06:21:27;;;;;;;7.87;6.03;;;18.80;26.10;;;;;;2616733;54;20940;-80
2022/09/01 06:27:17;;;;;;;6.07;5.57;;;19.30;23.70;;;;;;2616836;47;20368;-78
2022/09/01 06:33:08;;;;;;;6.60;5.60;;;19.20;23.70;;;;;;2617759;39;20887;-77
2022/09/01 06:42:18;;;;;;;9.50;5.70;;;20.10;18.20;;;;;;2616187;54;21346;-77
2022/09/01 06:48:06;;;;;;;7.83;5.43;;;20.00;17.50;;;;;;2615635;39;20805;-77
2022/09/01 06:53:58;;;;;;;5.63;5.23;;;20.20;16.60;;;;;;2615620;39;20787;-78
2022/09/01 06:59:46;;;;;;;5.87;4.80;;;20.30;17.20;;;;;;2618836;54;20383;-79
2022/09/01 07:05:39;;;;;;;6.40;5.80;;;20.70;15.00;;;;;;2619233;54;20341;-78
2022/09/01 07:11:31;;;;;;;6.80;6.17;;;21.00;14.90;;;;;;2619135;54;20359;-77
2022/09/01 07:17:20;;;;;;;5.83;5.30;;;21.20;12.80;;;;;;2618446;54;20976;-78
2022/09/01 07:23:08;;;;;;;5.90;5.40;;;21.00;12.20;;;;;;2617060;54;20490;-77
2022/09/01 07:28:56;;;;;;;6.33;5.40;;;21.60;11.10;;;;;;2617484;54;20648;-78
2022/09/01 07:34:45;;;;;;;7.80;4.97;;;21.70;9.50;;;;;;2615927;54;20375;-76
2022/09/01 07:37:30;;;;;;;9.53;6.07;;;22.10;9.90;;;;;;2615992;54;20403;-76
2022/09/01 07:39:57;;;;;;;7.50;5.73;;;22.40;9.40;;;;;;2614232;54;20975;-76
2022/09/01 07:45:47;;;;;;;5.60;5.10;;;22.70;7.90;;;;;;2616673;54;20375;-76
2022/09/01 07:51:35;;;;;;;5.90;5.47;;;23.00;6.80;;;;;;2617244;54;20624;-76
2022/09/01 07:57:23;;;;;;;5.87;5.47;;;23.00;6.80;;;;;;2616203;54;20135;-76
2022/09/01 08:03:13;;;;;;;5.57;5.10;;;23.60;5.10;;;;;;2615641;54;20678;-75
2022/09/01 08:09:00;;;;;;;5.20;4.90;;;23.50;4.30;;;;;;2617484;54;20449;-77
2022/09/01 08:14:51;;;;;;;6.37;5.87;;;23.70;3.80;;;;;;2617043;39;20293;-78
2022/09/01 08:20:44;;;;;;;5.67;5.27;;;24.40;1.90;;;;;;2616676;54;20386;-78
2022/09/01 08:26:31;;;;;;;5.50;5.00;;;24.20;1.90;;;;;;2637160;36;20490;-79
2022/09/01 08:32:20;;;;;;;5.63;5.10;;;24.50;1.70;;;;;;2617589;39;20350;-78
2022/09/01 08:42:05;;;;;;;6.00;5.40;;;24.90;1.00;;;;;;2618791;39;20885;-78
2022/09/01 08:47:57;;;;;;;5.47;5.17;;;24.80;1.00;;;;;;2616731;54;20516;-76
2022/09/01 09:00:26;;;;;;;5.73;5.17;;;25.00;1.00;;;;;;2615741;54;20372;-78
2022/09/01 09:13:16;;;;;;;5.80;5.30;;;25.50;1.00;;;;;;2618248;54;20917;-78
2022/09/01 09:19:10;;;;;;;5.40;5.10;;;25.50;1.00;;;;;;2618351;54;20379;-78
2022/09/01 09:36:01;;;;;;;4.93;4.63;;;25.70;1.00;;;;;;2616496;54;20914;-78
2022/09/01 09:42:07;;;;;;;4.83;4.53;;;25.70;1.00;;;;;;2615600;54;20413;-78
2022/09/01 09:47:56;;;;;;;4.83;4.50;;;25.80;1.00;;;;;;2616667;54;20399;-79
2022/09/01 09:53:44;;;;;;;5.07;4.87;;;26.30;1.00;;;;;;2614723;54;20435;-78
2022/09/01 09:59:40;;;;;;;5.13;4.63;;;26.60;1.00;;;;;;2616116;54;20124;-77
2022/09/01 10:05:33;;;;;;;5.37;4.87;;;26.50;1.00;;;;;;2616376;54;20383;-75
2022/09/01 10:30:55;;;;;;;5.77;5.20;;;27.40;1.00;;;;;;2614667;54;20940;-74
2022/09/01 10:36:45;;;;;;;5.83;5.03;;;27.40;1.00;;;;;;2615151;54;20395;-77
2022/09/01 10:42:33;;;;;;;5.83;5.27;;;27.10;1.00;;;;;;2615587;54;20369;-75
2022/09/01 10:48:22;;;;;;;5.50;5.10;;;26.90;1.00;;;;;;2615373;54;20427;-76
2022/09/01 11:00:54;;;;;;;5.23;5.03;;;27.60;1.00;;;;;;2614875;54;20409;-75
2022/09/01 11:13:42;;;;;;;8.03;5.20;;;27.20;1.00;;;;;;2617799;54;20386;-77
2022/09/01 11:19:45;;;;;;;5.40;5.00;;;27.10;1.00;;;;;;2617166;54;20401;-76
2022/09/01 11:25:47;;;;;;;5.50;5.00;;;28.40;1.00;;;;;;2614996;54;20396;-76
2022/09/01 11:31:43;;;;;;;5.20;4.90;;;28.10;1.00;;;;;;2617277;54;20375;-78
2022/09/01 11:37:32;;;;;;;5.57;5.07;;;28.00;1.00;;;;;;2615249;54;20390;-78
2022/09/01 11:43:19;;;;;;;5.60;5.30;;;25.70;1.00;;;;;;2616612;54;20453;-77
2022/09/01 11:46:32;;;;;;;5.67;5.17;;;27.00;1.00;;;;;;2617114;54;20969;-77
2022/09/01 11:52:23;;;;;;;5.90;5.27;;;28.60;1.00;;;;;;2616700;54;20401;-75
2022/09/01 11:58:26;;;;;;;5.70;5.30;;;27.50;1.00;;;;;;2616217;54;20416;-76
2022/09/01 12:10:49;;;;;;;5.37;4.90;;;28.10;1.00;;;;;;2615631;39;20903;-75
2022/09/01 12:16:40;;;;;;;7.07;5.07;;;28.30;1.00;;;;;;2616602;54;20987;-75
2022/09/01 12:22:28;;;;;;;6.57;6.10;;;28.10;1.00;;;;;;2615361;54;20439;-75
2022/09/01 12:28:15;;;;;;;5.77;5.30;;;28.50;1.00;;;;;;2616713;54;20132;-76
2022/09/01 12:34:03;;;;;;;5.57;5.07;;;27.90;1.00;;;;;;2616550;54;20115;-73
2022/09/01 12:46:09;;;;;;;5.27;4.77;;;28.60;1.00;;;;;;2615167;39;20748;-75
2022/09/01 12:52:11;;;;;;;8.27;5.00;;;28.80;1.00;;;;;;2616770;54;20410;-74
2022/09/01 12:58:01;;;;;;;7.47;5.13;;;28.50;1.00;;;;;;2616471;54;20398;-78
2022/09/01 13:04:10;;;;;;;6.03;4.73;;;29.30;1.00;;;;;;2616414;54;20396;-78
2022/09/01 13:09:58;;;;;;;5.10;4.70;;;27.90;1.00;;;;;;2616274;54;20417;-78
2022/09/01 13:15:51;;;;;;;5.10;4.80;;;29.10;1.00;;;;;;2617215;54;20113;-79
2022/09/01 13:21:39;;;;;;;5.97;5.50;;;28.20;1.00;;;;;;2616336;54;20414;-78
2022/09/01 13:27:27;;;;;;;5.67;5.27;;;28.10;1.00;;;;;;2616976;54;20153;-79
2022/09/01 13:33:15;;;;;;;4.77;4.47;;;28.70;1.00;;;;;;2616793;54;20151;-78
2022/09/01 13:39:03;;;;;;;4.90;4.60;;;28.80;1.00;;;;;;2617403;54;20157;-78
2022/09/01 13:42:01;;;;;;;5.00;4.70;;;28.50;1.00;;;;;;2615616;47;20418;-78
2022/09/01 13:44:27;;;;;;;5.30;4.90;;;28.50;1.00;;;;;;2616942;54;20438;-79
2022/09/01 13:50:17;;;;;;;4.73;4.43;;;28.80;1.00;;;;;;2616280;54;20223;-77
2022/09/01 13:56:05;;;;;;;4.10;3.90;;;29.20;1.00;;;;;;2616673;54;20398;-79
2022/09/01 14:01:53;;;;;;;5.10;4.80;;;29.10;1.00;;;;;;2617867;54;20132;-80
2022/09/01 14:07:41;;;;;;;4.97;4.67;;;29.30;1.00;;;;;;2618181;54;20149;-78
2022/09/01 14:13:30;;;;;;;8.27;4.90;;;29.60;1.00;;;;;;2616809;54;20164;-79
2022/09/01 14:19:17;;;;;;;4.97;4.67;;;29.60;1.00;;;;;;2618202;47;20350;-76
2022/09/01 14:25:07;;;;;;;5.10;4.80;;;29.00;1.00;;;;;;2617721;54;20152;-77
2022/09/01 14:30:54;;;;;;;4.97;4.67;;;29.90;1.00;;;;;;2615366;54;20381;-76
2022/09/01 14:36:44;;;;;;;10.80;4.67;;;30.60;1.00;;;;;;2617935;54;20115;-75
2022/09/01 14:46:34;;;;;;;4.50;4.30;;;30.30;1.00;;;;;;2634795;36;20499;-78
2022/09/01 14:52:22;;;;;;;5.07;4.77;;;30.90;1.00;;;;;;2617911;54;20386;-78
2022/09/01 14:58:10;;;;;;;5.60;4.47;;;30.60;1.00;;;;;;2616814;54;20129;-77
2022/09/01 15:03:58;;;;;;;5.03;4.63;;;30.40;1.00;;;;;;2616488;39;20506;-78
2022/09/01 15:09:46;;;;;;;5.47;5.07;;;30.00;1.00;;;;;;2617548;54;20197;-78
2022/09/01 15:15:34;;;;;;;9.17;5.00;;;30.10;1.00;;;;;;2618002;54;20133;-79
2022/09/01 15:21:29;;;;;;;6.27;5.00;;;27.90;1.00;;;;;;2616966;54;20402;-79
2022/09/01 15:27:17;;;;;;;5.27;4.87;;;29.30;1.00;;;;;;2618953;54;20372;-78
2022/09/01 15:33:08;;;;;;;5.50;5.00;;;30.10;1.00;;;;;;2619364;46;20385;-78
2022/09/01 15:38:57;;;;;;;4.87;4.57;;;30.00;1.00;;;;;;2619205;54;20899;-80
2022/09/01 15:45:09;;;;;;;5.23;4.93;;;30.60;1.00;;;;;;2617415;39;20794;-81
2022/09/01 15:57:53;;;;;;;5.27;4.90;;;30.60;1.00;;;;;;2615905;54;20381;-78
2022/09/01 16:03:40;;;;;;;9.73;5.10;;;31.30;1.00;;;;;;2617588;54;20402;-80
2022/09/01 16:09:29;;;;;;;5.10;4.80;;;31.30;1.00;;;;;;2617627;54;20139;-78
2022/09/01 16:15:21;;;;;;;4.47;4.17;;;30.50;1.00;;;;;;2617130;54;20385;-79
2022/09/01 16:21:14;;;;;;;5.97;5.50;;;30.10;1.00;;;;;;2618320;54;20431;-80
2022/09/01 16:27:02;;;;;;;6.73;5.20;;;30.30;1.00;;;;;;2620540;39;20768;-81
2022/09/01 16:32:50;;;;;;;8.67;8.07;;;29.40;1.00;;;;;;2619563;54;20467;-81
2022/09/01 17:02:18;;;;;;;6.93;6.30;;;28.20;1.00;;;;;;2625790;54;20381;-85
2022/09/01 17:14:39;;;;;;;12.67;11.60;;;24.60;1.00;;;;;;2623524;54;20395;-84
2022/09/01 17:20:33;;;;;;;9.20;8.70;;;24.10;1.00;;;;;;2625362;54;20387;-85
2022/09/01 17:26:27;;;;;;;6.33;5.80;;;23.80;1.00;;;;;;2627646;39;20790;-85
2022/09/01 18:08:32;;;;;;;6.60;6.10;;;22.30;1.00;;;;;;2616765;54;20479;-77
2022/09/01 18:14:23;;;;;;;5.70;5.20;;;22.00;1.00;;;;;;2616898;54;20401;-77
2022/09/01 18:26:45;;;;;;;5.77;5.37;;;21.70;1.00;;;;;;2617882;54;20838;-79
2022/09/01 18:43:37;;;;;;;6.30;5.00;;;21.30;1.00;;;;;;2617337;54;20425;-80
2022/09/01 18:57:03;;;;;;;5.70;5.30;;;20.90;1.00;;;;;;2617106;54;20432;-79
2022/09/01 19:16:32;;;;;;;6.97;6.10;;;20.60;1.00;;;;;;2619614;54;20902;-77
2022/09/01 19:28:46;;;;;;;5.70;5.30;;;20.30;1.00;;;;;;2619248;54;20909;-78
2022/09/01 19:34:42;;;;;;;5.77;5.30;;;20.20;1.00;;;;;;2618497;54;20367;-78
2022/09/01 19:40:33;;;;;;;6.07;5.50;;;20.20;1.00;;;;;;2618582;54;20357;-78
2022/09/01 19:43:39;;;;;;;5.93;5.53;;;20.10;1.10;;;;;;2617634;54;20388;-80
2022/09/01 20:02:32;;;;;;;8.40;5.50;;;19.70;2.10;;;;;;2617038;54;20471;-78
2022/09/01 20:48:55;;;;;;;5.73;5.13;;;19.00;3.20;;;;;;2616133;54;20975;-77
2022/09/01 21:05:39;;;;;;;11.83;6.20;;;18.60;4.70;;;;;;2617968;54;20357;-77
2022/09/01 21:11:36;;;;;;;6.17;5.57;;;18.30;5.90;;;;;;2615489;54;20411;-77
2022/09/01 21:23:54;;;;;;;6.53;5.10;;;17.80;7.20;;;;;;2616085;54;20386;-78
2022/09/01 21:29:45;;;;;;;6.57;6.00;;;17.80;8.10;;;;;;2616540;39;20525;-77
2022/09/01 21:35:33;;;;;;;5.07;4.60;;;17.70;8.00;;;;;;2614943;54;20385;-78
2022/09/01 21:41:20;;;;;;;5.47;4.97;;;17.60;8.00;;;;;;2616089;54;20140;-77
2022/09/01 21:43:48;;;;;;;6.03;5.63;;;17.70;8.10;;;;;;2614940;47;20419;-76
2022/09/01 21:46:15;;;;;;;6.80;4.93;;;17.80;7.70;;;;;;2614743;54;20161;-77
2022/09/01 21:52:03;;;;;;;5.47;4.57;;;17.90;7.00;;;;;;2616187;54;20374;-77
2022/09/01 21:57:51;;;;;;;5.83;5.50;;;17.90;7.20;;;;;;2616216;54;20439;-76
2022/09/01 22:03:39;;;;;;;9.00;5.40;;;17.90;6.70;;;;;;2615180;54;21061;-77
2022/09/01 22:09:27;;;;;;;5.57;5.07;;;17.80;7.00;;;;;;2615414;54;20919;-78
2022/09/01 22:15:18;;;;;;;8.50;4.87;;;17.70;7.30;;;;;;2616567;54;20162;-77
2022/09/01 22:21:08;;;;;;;5.93;5.33;;;17.50;7.90;;;;;;2616002;54;20433;-77
2022/09/01 22:26:55;;;;;;;5.80;5.30;;;17.40;8.30;;;;;;2616119;54;20409;-77
2022/09/01 22:32:44;;;;;;;6.33;5.83;;;17.30;8.70;;;;;;2616319;54;20123;-77
2022/09/01 22:38:32;;;;;;;5.73;5.23;;;17.10;9.00;;;;;;2616547;54;20428;-77
2022/09/01 22:48:19;;;;;;;5.97;5.57;;;17.00;9.50;;;;;;2616886;54;20376;-77
2022/09/01 22:54:07;;;;;;;6.60;5.10;;;16.80;11.00;;;;;;2616083;54;20377;-77
2022/09/01 22:59:55;;;;;;;5.67;5.20;;;16.80;10.30;;;;;;2617381;54;20392;-76
2022/09/01 23:05:44;;;;;;;6.07;5.67;;;16.70;10.90;;;;;;2617086;54;20125;-77
2022/09/01 23:11:32;;;;;;;6.93;5.57;;;16.80;11.10;;;;;;2615838;54;20497;-77
2022/09/01 23:17:21;;;;;;;5.60;5.30;;;16.70;10.90;;;;;;2617585;54;20149;-76
2022/09/01 23:23:09;;;;;;;5.50;5.10;;;16.70;11.20;;;;;;2616806;54;20576;-76
2022/09/01 23:28:58;;;;;;;5.23;4.87;;;16.60;11.40;;;;;;2617536;54;20205;-76
2022/09/01 23:34:46;;;;;;;5.50;5.10;;;16.50;12.10;;;;;;2616956;54;20397;-77
2022/09/01 23:40:39;;;;;;;5.33;5.03;;;16.30;12.90;;;;;;2615812;54;20502;-79
2022/09/01 23:43:51;;;;;;;5.93;5.33;;;16.30;13.20;;;;;;2615065;47;20409;-77
2022/09/01 23:46:20;;;;;;;5.07;4.77;;;16.10;13.50;;;;;;2615652;54;20416;-77
2022/09/01 23:52:08;;;;;;;6.67;6.07;;;16.20;13.20;;;;;;2616854;39;20769;-76
2022/09/01 23:57:56;;;;;;;7.13;5.83;;;16.10;14.20;;;;;;2615489;54;20397;-77
